Time;durP1;ratioP1;P1;durP2;ratioP2;P2;SDS_P1;SDS_P2;PMS_P1;PMS_P2;Temp;Humidity;BMP_temperature;BMP_pressure;BME280_temperature;BME280_humidity;BME280_pressure;Samples;Min_cycle;Max_cycle;Signal;HPM_P1;HPM_P2
2022/10/03 00:00:25;;;;;;;30.60;4.88;;;;;;;16.02;66.00;101551.91;4959578;28;119537;-73
2022/10/03 00:03:20;;;;;;;29.92;4.93;;;;;;;16.03;66.03;101551.44;4966554;28;119978;-73
2022/10/03 00:06:14;;;;;;;29.85;4.93;;;;;;;16.03;65.43;101565.28;4963771;28;119369;-73
2022/10/03 00:09:06;;;;;;;32.03;5.30;;;;;;;16.04;65.64;101560.50;4946984;28;120037;-73
2022/10/03 00:12:03;;;;;;;31.92;5.35;;;;;;;16.06;65.86;101566.34;4965652;28;120527;-73
2022/10/03 00:14:56;;;;;;;30.13;4.72;;;;;;;16.04;65.51;101566.03;4960894;28;120039;-73
2022/10/03 00:17:37;;;;;;;29.60;5.07;;;;;;;16.03;65.82;101567.28;4963450;28;120057;-73
2022/10/03 00:20:18;;;;;;;30.88;5.28;;;;;;;16.02;65.86;101565.75;4968373;28;120184;-73
2022/10/03 00:22:57;;;;;;;32.17;5.27;;;;;;;16.00;65.75;101568.22;4965346;28;119712;-74
2022/10/03 00:25:28;;;;;;;33.03;5.40;;;;;;;16.00;65.76;101574.50;4962531;28;120439;-73
2022/10/03 00:28:36;;;;;;;36.50;5.00;;;;;;;15.95;66.03;101573.16;4971610;28;120060;-73
2022/10/03 00:31:20;;;;;;;34.60;5.25;;;;;;;15.97;65.82;101580.97;4965912;28;120702;-73
2022/10/03 00:34:38;;;;;;;31.75;5.07;;;;;;;15.99;66.12;101592.34;4960310;28;119854;-73
2022/10/03 00:37:23;;;;;;;30.70;5.22;;;;;;;16.01;65.80;101586.34;4952168;28;120445;-73
2022/10/03 00:40:08;;;;;;;32.17;5.07;;;;;;;16.03;65.91;101589.41;5001146;27;119986;-74
2022/10/03 00:42:43;;;;;;;29.42;5.30;;;;;;;16.03;65.49;101586.66;4975159;28;120444;-73
2022/10/03 00:45:36;;;;;;;31.33;5.13;;;;;;;16.01;65.75;101597.41;4965181;28;119974;-73
2022/10/03 00:48:04;;;;;;;30.30;5.18;;;;;;;16.02;65.51;101598.94;4965271;28;119440;-74
2022/10/03 00:50:57;;;;;;;30.58;4.93;;;;;;;16.00;65.69;101606.94;4967478;28;119850;-74
2022/10/03 00:53:41;;;;;;;31.47;5.50;;;;;;;16.00;65.54;101598.66;4961431;28;119786;-73
2022/10/03 00:56:20;;;;;;;30.50;4.90;;;;;;;16.02;65.63;101594.19;4966860;28;119963;-73
2022/10/03 00:58:58;;;;;;;35.38;5.18;;;;;;;16.04;65.57;101602.00;4967330;28;120444;-73
2022/10/03 01:01:35;;;;;;;30.33;4.88;;;;;;;16.04;65.54;101602.78;4966721;28;119353;-73
2022/10/03 01:04:33;;;;;;;33.03;5.22;;;;;;;16.04;65.68;101599.25;4966912;28;119747;-73
2022/10/03 01:07:28;;;;;;;31.33;5.03;;;;;;;16.03;65.41;101609.56;4966799;28;119968;-73
2022/10/03 01:10:03;;;;;;;31.52;5.22;;;;;;;16.02;65.41;101607.25;4955491;28;119969;-73
2022/10/03 01:13:15;;;;;;;31.27;5.30;;;;;;;16.02;65.83;101615.56;4969607;28;120489;-73
2022/10/03 01:16:05;;;;;;;29.60;5.22;;;;;;;16.04;65.70;101621.38;4933259;28;120006;-73
2022/10/03 01:18:52;;;;;;;37.70;5.63;;;;;;;16.06;65.68;101621.69;4941298;28;119888;-73
2022/10/03 01:21:39;;;;;;;34.00;5.10;;;;;;;16.05;65.41;101617.38;4922895;28;119653;-73
2022/10/03 01:24:25;;;;;;;31.77;5.35;;;;;;;16.08;65.25;101620.00;4936239;28;120120;-73
2022/10/03 01:27:34;;;;;;;37.17;5.63;;;;;;;16.06;65.31;101630.75;4933771;28;119938;-73
2022/10/03 01:30:22;;;;;;;38.05;6.03;;;;;;;16.03;65.42;101628.94;4861903;28;120657;-73
2022/10/03 01:33:26;;;;;;;35.10;5.50;;;;;;;16.04;65.76;101629.69;4867014;28;120033;-73
2022/10/03 01:36:08;;;;;;;34.83;6.03;;;;;;;16.04;65.81;101624.91;4851060;28;120127;-73
2022/10/03 01:38:50;;;;;;;32.78;5.43;;;;;;;16.05;65.68;101632.00;4875209;28;119938;-74
2022/10/03 01:41:31;;;;;;;30.23;5.68;;;;;;;16.06;65.83;101638.28;4869176;28;119736;-73
2022/10/03 01:44:01;;;;;;;36.37;6.00;;;;;;;16.02;65.67;101632.16;4871378;28;120663;-73
2022/10/03 01:46:37;;;;;;;31.42;5.60;;;;;;;16.08;65.69;101633.06;4875698;28;120032;-73
2022/10/03 01:49:31;;;;;;;37.08;5.82;;;;;;;16.10;65.74;101641.69;4871525;28;120183;-73
2022/10/03 01:52:02;;;;;;;37.85;5.90;;;;;;;16.10;65.66;101644.47;4887165;28;119983;-73
2022/10/03 01:54:49;;;;;;;36.33;6.13;;;;;;;16.09;65.93;101651.19;4871670;28;119876;-73
2022/10/03 01:57:33;;;;;;;30.55;5.47;;;;;;;16.07;65.42;101659.19;4886571;28;120515;-73
2022/10/03 02:00:09;;;;;;;38.65;6.07;;;;;;;16.10;65.88;101658.28;4893641;28;120346;-73
2022/10/03 02:03:03;;;;;;;33.40;5.50;;;;;;;16.10;65.52;101659.06;4960855;28;119540;-73
2022/10/03 02:05:58;;;;;;;35.40;6.13;;;;;;;16.09;65.52;101670.56;4965269;28;119886;-73
2022/10/03 02:08:32;;;;;;;35.38;5.90;;;;;;;16.10;65.78;101672.13;4965042;28;120033;-73
2022/10/03 02:11:01;;;;;;;38.50;6.22;;;;;;;16.12;65.94;101664.91;4964076;28;120380;-73
2022/10/03 02:13:40;;;;;;;34.30;5.97;;;;;;;16.13;65.51;101668.44;4966317;28;120249;-73
2022/10/03 02:16:14;;;;;;;32.67;5.93;;;;;;;16.13;65.37;101671.19;4973419;28;119777;-73
2022/10/03 02:18:50;;;;;;;34.95;5.70;;;;;;;16.13;65.51;101665.66;4970376;28;120012;-74
2022/10/03 02:21:23;;;;;;;39.40;6.20;;;;;;;16.14;65.38;101667.19;4961551;28;118672;-73
2022/10/03 02:24:05;;;;;;;30.70;5.57;;;;;;;16.14;65.17;101661.66;4994339;28;120578;-73
2022/10/03 02:26:56;;;;;;;37.88;6.10;;;;;;;16.15;65.45;101674.28;4964437;28;119709;-73
2022/10/03 02:29:50;;;;;;;36.47;5.40;;;;;;;16.15;65.40;101675.03;4966190;28;120255;-73
2022/10/03 02:32:22;;;;;;;32.67;5.78;;;;;;;16.15;65.26;101682.56;4969081;28;119722;-73
2022/10/03 02:35:13;;;;;;;36.08;5.80;;;;;;;16.15;65.46;101679.81;4970069;28;120034;-73
2022/10/03 02:38:04;;;;;;;35.00;5.67;;;;;;;16.13;65.55;101683.03;4967049;28;120057;-73
2022/10/03 02:40:39;;;;;;;34.95;5.60;;;;;;;16.14;65.47;101687.34;4964554;28;120482;-73
2022/10/03 02:43:23;;;;;;;34.10;5.45;;;;;;;16.16;64.92;101684.09;4964302;28;119638;-73
2022/10/03 02:45:58;;;;;;;34.28;6.18;;;;;;;16.16;64.88;101686.88;4965662;28;119511;-73
2022/10/03 02:49:27;;;;;;;40.78;6.13;;;;;;;16.15;65.54;101688.88;4960533;28;119734;-73
2022/10/03 02:51:59;;;;;;;34.50;5.65;;;;;;;16.15;65.43;101688.09;4968580;28;119808;-73
2022/10/03 02:54:30;;;;;;;34.85;5.75;;;;;;;16.15;65.50;101691.66;4966760;28;119850;-73
2022/10/03 02:57:19;;;;;;;33.40;5.78;;;;;;;16.14;65.29;101690.09;4964206;28;119555;-73
2022/10/03 02:59:48;;;;;;;31.42;5.57;;;;;;;16.12;65.63;101689.81;4965717;28;120359;-73
2022/10/03 03:02:37;;;;;;;31.90;5.20;;;;;;;16.13;65.54;101691.34;4970394;28;119752;-73
2022/10/03 03:05:05;;;;;;;40.92;6.18;;;;;;;16.11;65.43;101701.34;4963541;28;119516;-73
2022/10/03 03:07:57;;;;;;;35.05;5.85;;;;;;;16.11;65.18;101696.56;4967723;28;119587;-73
2022/10/03 03:10:44;;;;;;;37.37;5.83;;;;;;;16.08;65.27;101705.78;4964320;28;119741;-73
2022/10/03 03:13:25;;;;;;;34.17;6.15;;;;;;;16.08;65.56;101705.00;4967996;28;119592;-73
2022/10/03 03:16:12;;;;;;;35.20;5.55;;;;;;;16.06;65.81;101702.72;4963598;28;119690;-73
2022/10/03 03:18:53;;;;;;;36.83;6.17;;;;;;;16.06;65.68;101704.72;4965595;28;120060;-73
2022/10/03 03:21:43;;;;;;;34.88;5.30;;;;;;;16.05;65.35;101703.19;4964750;28;119931;-73
2022/10/03 03:24:30;;;;;;;32.97;5.67;;;;;;;16.01;65.84;101700.56;4961683;28;120131;-73
2022/10/03 03:27:23;;;;;;;31.45;5.45;;;;;;;16.00;65.69;101712.09;4968545;28;120373;-73
2022/10/03 03:30:17;;;;;;;36.85;6.00;;;;;;;16.00;65.69;101706.56;4967764;28;119633;-73
2022/10/03 03:33:04;;;;;;;32.30;5.27;;;;;;;16.03;65.95;101711.19;4963929;28;120157;-73
2022/10/03 03:35:48;;;;;;;32.33;5.43;;;;;;;16.01;65.68;101708.09;4964730;28;119716;-73
2022/10/03 03:38:38;;;;;;;33.40;5.53;;;;;;;15.99;65.35;101705.81;4966728;28;121018;-73
2022/10/03 03:41:29;;;;;;;37.58;6.18;;;;;;;15.97;65.58;101708.28;4960067;28;120598;-73
2022/10/03 03:44:23;;;;;;;32.70;5.38;;;;;;;15.95;65.80;101707.97;4948289;28;119616;-73
2022/10/03 03:47:26;;;;;;;35.20;5.68;;;;;;;15.96;65.84;101712.28;4971334;28;119552;-73
2022/10/03 03:50:21;;;;;;;36.15;5.80;;;;;;;15.96;66.29;101720.56;4970006;28;119986;-73
2022/10/03 03:52:58;;;;;;;31.97;5.30;;;;;;;15.96;66.33;101728.88;4965175;28;119606;-73
2022/10/03 03:55:53;;;;;;;39.80;5.65;;;;;;;15.96;65.76;101729.63;4961374;28;119894;-73
2022/10/03 03:58:40;;;;;;;32.77;5.37;;;;;;;15.96;65.83;101721.34;4967607;28;119596;-73
2022/10/03 04:01:44;;;;;;;31.90;5.27;;;;;;;15.95;65.84;101725.34;4957847;28;119875;-73
2022/10/03 04:04:30;;;;;;;35.70;5.38;;;;;;;15.97;66.13;101724.88;4961082;28;120391;-73
2022/10/03 04:07:05;;;;;;;33.03;5.05;;;;;;;15.98;66.57;101725.66;4964960;28;119671;-73
2022/10/03 04:10:15;;;;;;;36.63;5.07;;;;;;;16.01;66.34;101725.47;4968537;28;119494;-73
2022/10/03 04:12:53;;;;;;;34.65;5.10;;;;;;;16.03;66.04;101736.09;4965248;28;119934;-73
2022/10/03 04:15:48;;;;;;;28.98;4.97;;;;;;;16.05;66.10;101730.84;4962767;28;119574;-73
2022/10/03 04:18:58;;;;;;;32.37;5.30;;;;;;;16.04;65.99;101732.09;4957175;28;119587;-73
2022/10/03 04:21:57;;;;;;;31.27;4.95;;;;;;;16.04;66.47;101730.09;4964491;28;120041;-73
2022/10/03 04:24:53;;;;;;;27.13;5.20;;;;;;;16.07;66.35;101728.38;4947467;28;120046;-73
2022/10/03 04:27:59;;;;;;;34.42;5.15;;;;;;;16.11;66.32;101731.78;4964715;28;120644;-73
2022/10/03 04:30:40;;;;;;;38.37;5.60;;;;;;;16.09;66.45;101731.47;4958935;28;120641;-73
2022/10/03 04:33:31;;;;;;;32.80;5.10;;;;;;;16.04;66.70;101735.63;4959806;28;119751;-73
2022/10/03 04:36:21;;;;;;;31.70;5.40;;;;;;;16.04;66.29;101732.84;4965490;28;119411;-73
2022/10/03 04:39:05;;;;;;;30.45;5.15;;;;;;;16.07;66.55;101734.69;4958798;28;120294;-73
2022/10/03 04:41:56;;;;;;;33.38;5.43;;;;;;;16.11;66.54;101731.78;4974229;28;119504;-73
2022/10/03 04:44:43;;;;;;;33.13;5.00;;;;;;;16.10;66.78;101730.25;4972367;28;119659;-73
2022/10/03 04:47:26;;;;;;;30.77;4.85;;;;;;;16.05;66.11;101725.31;4963789;28;119750;-73
2022/10/03 04:50:10;;;;;;;29.17;5.10;;;;;;;16.06;66.61;101735.94;4963159;28;120709;-73
2022/10/03 04:53:09;;;;;;;29.77;5.10;;;;;;;16.06;66.97;101733.16;4968100;28;119913;-73
2022/10/03 04:56:03;;;;;;;29.17;5.35;;;;;;;16.05;67.20;101739.16;4963687;28;119891;-73
2022/10/03 04:58:42;;;;;;;36.73;5.50;;;;;;;16.06;67.67;101737.94;4967830;28;120010;-73
2022/10/03 05:01:28;;;;;;;30.75;4.93;;;;;;;16.15;67.62;101741.47;4961620;28;120244;-73
2022/10/03 05:04:25;;;;;;;31.38;4.60;;;;;;;16.21;67.88;101747.16;4962493;28;119941;-73
2022/10/03 05:07:00;;;;;;;26.10;4.45;;;;;;;16.28;67.74;101746.81;4968384;28;120047;-73
2022/10/03 05:10:34;;;;;;;30.20;4.75;;;;;;;16.35;67.60;101737.44;4963965;28;120060;-73
2022/10/03 05:13:03;;;;;;;26.30;4.32;;;;;;;16.41;67.51;101741.13;4968428;28;119889;-73
2022/10/03 05:15:39;;;;;;;23.65;3.75;;;;;;;16.43;68.02;101747.72;4961281;28;119807;-73
2022/10/03 05:18:18;;;;;;;22.95;3.75;;;;;;;16.45;67.90;101744.47;4966760;28;120301;-73
2022/10/03 05:20:48;;;;;;;26.43;3.97;;;;;;;16.49;67.95;101747.84;4960338;28;120002;-73
2022/10/03 05:23:25;;;;;;;21.02;3.40;;;;;;;16.50;67.64;101750.16;4966605;28;120024;-73
2022/10/03 05:26:31;;;;;;;21.85;3.67;;;;;;;16.51;67.56;101746.16;4959645;28;119841;-74
2022/10/03 05:29:14;;;;;;;27.10;4.40;;;;;;;16.49;67.78;101758.94;4967701;28;119876;-73
2022/10/03 05:31:39;;;;;;;24.48;3.83;;;;;;;16.52;67.62;101752.47;4971174;28;119818;-73
2022/10/03 05:34:29;;;;;;;22.20;4.07;;;;;;;16.53;67.54;101756.75;4959392;28;120532;-73
2022/10/03 05:36:58;;;;;;;30.05;4.13;;;;;;;16.51;67.72;101757.22;4963574;28;120163;-73
2022/10/03 05:39:52;;;;;;;28.88;4.30;;;;;;;16.50;67.98;101755.69;4964509;28;119996;-73
2022/10/03 05:42:33;;;;;;;25.92;3.85;;;;;;;16.54;67.67;101766.59;4959609;28;119919;-73
2022/10/03 05:45:23;;;;;;;22.50;3.80;;;;;;;16.52;67.68;101769.84;4970258;28;119521;-73
2022/10/03 05:48:07;;;;;;;26.15;4.20;;;;;;;16.53;67.56;101768.59;4966516;28;120286;-73
2022/10/03 05:50:56;;;;;;;22.20;4.00;;;;;;;16.52;67.54;101769.06;4964516;28;120732;-73
2022/10/03 05:53:44;;;;;;;24.27;3.72;;;;;;;16.50;67.38;101771.53;4965946;28;119903;-73
2022/10/03 05:56:20;;;;;;;26.83;4.50;;;;;;;16.47;67.23;101766.94;4969808;28;119796;-73
2022/10/03 05:59:07;;;;;;;27.60;4.65;;;;;;;16.48;67.47;101769.25;4964120;28;119709;-74
2022/10/03 06:01:38;;;;;;;31.95;4.78;;;;;;;16.48;67.42;101774.00;4970060;28;119999;-73
2022/10/03 06:04:32;;;;;;;29.02;4.90;;;;;;;16.48;67.40;101777.56;4967386;28;120296;-73
2022/10/03 06:07:30;;;;;;;26.52;4.43;;;;;;;16.51;67.11;101779.38;4961240;28;119734;-73
2022/10/03 06:10:20;;;;;;;26.48;4.85;;;;;;;16.52;67.02;101780.91;4966812;28;119979;-73
2022/10/03 06:13:13;;;;;;;31.15;4.90;;;;;;;16.52;67.28;101780.91;4966080;28;120102;-73
2022/10/03 06:16:02;;;;;;;26.07;5.10;;;;;;;16.53;66.89;101782.47;4964420;28;119742;-74
2022/10/03 06:18:46;;;;;;;30.07;5.23;;;;;;;16.57;67.01;101788.63;4975071;28;119628;-73
2022/10/03 06:21:50;;;;;;;28.65;5.00;;;;;;;16.59;67.02;101785.38;4985759;28;119884;-73
2022/10/03 06:25:20;;;;;;;33.70;5.10;;;;;;;16.65;67.06;101788.28;4966123;28;119619;-74
2022/10/03 06:28:17;;;;;;;38.03;5.35;;;;;;;16.67;67.02;101786.63;4943710;28;119507;-73
2022/10/03 06:31:04;;;;;;;34.88;5.32;;;;;;;16.68;67.00;101792.94;4965962;28;119965;-73
2022/10/03 06:33:54;;;;;;;40.67;5.82;;;;;;;16.70;67.17;101788.47;4966487;28;119657;-74
2022/10/03 06:36:54;;;;;;;36.00;5.63;;;;;;;16.73;67.06;101795.06;4952350;28;120191;-73
2022/10/03 06:39:48;;;;;;;28.90;5.25;;;;;;;16.74;67.23;101785.50;4967738;28;119811;-73
2022/10/03 06:42:23;;;;;;;26.15;4.57;;;;;;;16.81;67.59;101788.75;4967756;28;119789;-73
2022/10/03 06:45:09;;;;;;;30.48;5.00;;;;;;;16.88;67.23;101790.41;4959185;28;119766;-73
2022/10/03 06:47:46;;;;;;;29.77;5.10;;;;;;;16.89;66.78;101789.16;4977676;28;119920;-73
2022/10/03 06:50:45;;;;;;;36.83;5.63;;;;;;;16.91;66.62;101797.78;4965241;28;120324;-73
2022/10/03 06:53:43;;;;;;;31.75;5.25;;;;;;;16.92;66.62;101802.09;4959572;28;119580;-73
2022/10/03 06:56:41;;;;;;;32.92;5.32;;;;;;;16.97;66.91;101800.69;4956100;28;119701;-73
2022/10/03 06:59:30;;;;;;;28.97;5.37;;;;;;;17.04;66.48;101811.47;4966209;28;120163;-73
2022/10/03 07:02:13;;;;;;;27.73;4.80;;;;;;;17.07;66.43;101816.81;4965519;28;120126;-73
2022/10/03 07:04:39;;;;;;;32.27;5.90;;;;;;;17.11;66.46;101814.66;4977093;28;120077;-73
2022/10/03 07:07:20;;;;;;;29.40;5.30;;;;;;;17.19;66.34;101815.84;4963379;28;120248;-73
2022/10/03 07:10:11;;;;;;;27.65;5.03;;;;;;;17.26;66.22;101814.72;4981054;28;119988;-73
2022/10/03 07:12:37;;;;;;;30.13;5.05;;;;;;;17.29;66.34;101821.38;4966090;28;120132;-73
2022/10/03 07:15:21;;;;;;;32.83;5.60;;;;;;;17.32;65.82;101829.50;4968601;28;120367;-73
2022/10/03 07:18:16;;;;;;;31.30;5.85;;;;;;;17.35;65.92;101822.25;4969594;28;119864;-73
2022/10/03 07:21:03;;;;;;;33.08;5.43;;;;;;;17.41;65.82;101828.69;4981266;28;119770;-73
2022/10/03 07:23:52;;;;;;;35.77;5.37;;;;;;;17.46;65.81;101828.81;4963757;28;120062;-73
2022/10/03 07:27:07;;;;;;;33.08;5.30;;;;;;;17.53;65.98;101847.13;4966044;28;120033;-74
2022/10/03 07:30:01;;;;;;;26.55;4.65;;;;;;;17.58;65.59;101843.69;4919528;28;119889;-73
2022/10/03 07:33:05;;;;;;;28.03;5.10;;;;;;;17.61;65.59;101851.06;4962940;28;120012;-73
2022/10/03 07:39:08;;;;;;;26.55;4.65;;;;;;;17.70;65.47;101853.81;4957833;28;119565;-73
2022/10/03 07:41:56;;;;;;;25.10;4.55;;;;;;;17.72;64.99;101856.13;4963658;28;119888;-73
2022/10/03 07:44:31;;;;;;;32.60;4.77;;;;;;;17.75;65.27;101864.28;4963027;28;120298;-73
2022/10/03 07:47:35;;;;;;;28.48;4.68;;;;;;;17.83;65.34;101855.59;4956515;28;120485;-73
2022/10/03 07:50:39;;;;;;;26.10;4.57;;;;;;;17.88;64.98;101866.81;4962316;28;119987;-73
2022/10/03 07:53:30;;;;;;;24.80;4.60;;;;;;;17.95;65.00;101862.91;4977571;28;120372;-73
2022/10/03 07:56:08;;;;;;;27.33;4.67;;;;;;;18.00;65.10;101865.06;4946659;28;119591;-73
2022/10/03 07:59:11;;;;;;;31.35;4.70;;;;;;;18.16;64.87;101870.16;4962957;28;120160;-74
2022/10/03 08:01:53;;;;;;;23.00;4.60;;;;;;;18.26;64.23;101868.88;4967929;28;120502;-73
2022/10/03 08:04:32;;;;;;;25.83;4.55;;;;;;;18.36;64.11;101873.09;4963952;28;119963;-73
2022/10/03 08:07:18;;;;;;;22.57;4.30;;;;;;;18.48;64.09;101873.31;4938793;28;120996;-73
2022/10/03 08:09:43;;;;;;;23.95;4.82;;;;;;;18.56;63.18;101882.81;4961583;28;119974;-73
2022/10/03 08:12:39;;;;;;;23.30;4.10;;;;;;;18.61;63.30;101882.16;4968813;28;119883;-73
2022/10/03 08:15:20;;;;;;;24.87;4.40;;;;;;;18.67;63.10;101888.59;4949399;28;120174;-73
2022/10/03 08:18:23;;;;;;;21.52;4.35;;;;;;;18.76;62.86;101896.09;4970904;28;120466;-73
2022/10/03 08:20:54;;;;;;;27.17;4.65;;;;;;;18.80;62.72;101893.88;4970941;28;120399;-74
2022/10/03 08:23:43;;;;;;;29.25;5.05;;;;;;;18.83;62.74;101893.69;4971317;28;120808;-74
2022/10/03 08:26:10;;;;;;;27.10;5.25;;;;;;;18.93;62.46;101905.50;4957629;28;119963;-74
2022/10/03 08:29:13;;;;;;;19.67;4.10;;;;;;;18.98;61.26;101897.25;4969629;28;120187;-74
2022/10/03 08:32:06;;;;;;;23.33;4.20;;;;;;;19.00;61.14;101905.88;4970508;28;120026;-74
2022/10/03 08:34:44;;;;;;;23.85;4.30;;;;;;;19.11;61.48;101910.09;4972253;28;120127;-74
2022/10/03 08:37:28;;;;;;;21.20;4.68;;;;;;;19.13;60.96;101907.59;4971828;28;120288;-74
2022/10/03 08:40:04;;;;;;;23.13;4.40;;;;;;;19.16;60.40;101901.06;4969816;28;120468;-73
2022/10/03 08:42:51;;;;;;;24.03;4.40;;;;;;;19.18;59.76;101916.06;4967251;28;120011;-73
2022/10/03 08:45:37;;;;;;;21.90;4.00;;;;;;;19.20;59.78;101912.78;4971114;28;119679;-73
2022/10/03 08:48:23;;;;;;;23.55;4.20;;;;;;;19.30;60.53;101911.41;4968246;28;119649;-73
2022/10/03 08:50:55;;;;;;;21.65;4.28;;;;;;;19.33;59.77;101921.59;4972092;28;119708;-74
2022/10/03 08:53:47;;;;;;;21.50;4.07;;;;;;;19.33;59.54;101921.59;4971156;28;120404;-74
2022/10/03 08:56:24;;;;;;;23.87;4.07;;;;;;;19.37;59.29;101927.72;4961786;28;119893;-74
2022/10/03 08:59:28;;;;;;;21.85;4.18;;;;;;;19.44;58.17;101923.78;4958292;28;119668;-74
2022/10/03 09:02:21;;;;;;;26.00;5.15;;;;;;;19.49;59.70;101918.31;4957920;28;120330;-74
2022/10/03 09:04:59;;;;;;;16.70;3.60;;;;;;;19.57;58.99;101924.25;4960957;28;120438;-73
2022/10/03 09:07:37;;;;;;;20.08;4.28;;;;;;;19.63;58.59;101920.28;4993596;27;119753;-73
2022/10/03 09:10:25;;;;;;;25.13;4.35;;;;;;;19.67;58.90;101919.34;4962505;28;120075;-73
2022/10/03 09:13:03;;;;;;;21.00;3.92;;;;;;;19.71;59.17;101911.56;4963301;28;119628;-73
2022/10/03 09:16:31;;;;;;;21.45;3.92;;;;;;;19.76;57.26;101916.44;4979689;28;119709;-73
2022/10/03 09:19:02;;;;;;;19.95;3.83;;;;;;;19.79;58.27;101927.38;4959656;28;120305;-74
2022/10/03 09:21:50;;;;;;;20.75;4.10;;;;;;;19.78;57.45;101917.47;4965554;28;120572;-73
2022/10/03 09:24:47;;;;;;;21.27;4.30;;;;;;;19.76;57.41;101919.22;4956144;28;120304;-73
2022/10/03 09:27:24;;;;;;;20.23;4.00;;;;;;;19.77;57.73;101915.19;4966425;28;120227;-74
2022/10/03 09:30:14;;;;;;;22.00;3.90;;;;;;;19.83;57.25;101919.56;4970243;28;119527;-74
2022/10/03 09:32:56;;;;;;;21.40;4.50;;;;;;;19.85;56.97;101905.16;4961453;28;119453;-73
2022/10/03 09:35:31;;;;;;;23.23;4.32;;;;;;;19.85;57.66;101913.53;4972901;28;121697;-74
2022/10/03 09:38:15;;;;;;;24.25;4.60;;;;;;;19.84;57.98;101921.09;4970693;28;119929;-73
2022/10/03 09:41:02;;;;;;;21.10;4.05;;;;;;;19.81;57.89;101918.53;4967626;28;119885;-73
2022/10/03 09:44:05;;;;;;;19.58;4.28;;;;;;;19.81;58.88;101919.28;4966469;28;120907;-74
2022/10/03 09:47:21;;;;;;;24.13;4.60;;;;;;;19.80;58.51;101917.00;4964601;28;121167;-74
2022/10/03 09:49:59;;;;;;;25.30;4.27;;;;;;;19.83;58.59;101925.16;4966711;28;120126;-73
2022/10/03 09:52:32;;;;;;;23.13;4.50;;;;;;;19.94;58.46;101921.75;4959717;28;121418;-73
2022/10/03 09:55:19;;;;;;;23.38;4.45;;;;;;;20.03;58.94;101926.41;4969003;28;119868;-74
2022/10/03 09:57:58;;;;;;;20.25;4.22;;;;;;;20.06;57.54;101920.63;4965291;28;119389;-73
2022/10/03 10:00:30;;;;;;;24.25;4.40;;;;;;;20.04;58.02;101914.78;4967498;28;120060;-74
2022/10/03 10:03:50;;;;;;;22.88;4.07;;;;;;;20.01;57.90;101928.94;4970144;28;120075;-74
2022/10/03 10:06:27;;;;;;;23.90;4.30;;;;;;;19.89;57.97;101914.09;4934712;28;120718;-74
2022/10/03 10:09:31;;;;;;;19.38;3.95;;;;;;;19.77;58.73;101929.88;4939557;28;119827;-74
2022/10/03 10:12:15;;;;;;;17.15;3.53;;;;;;;19.73;58.53;101925.75;4963967;28;119510;-74
2022/10/03 10:14:53;;;;;;;18.50;4.23;;;;;;;19.84;58.83;101926.69;4962087;28;119596;-73
2022/10/03 10:17:56;;;;;;;21.67;3.83;;;;;;;20.01;59.19;101926.91;4967722;28;119618;-74
2022/10/03 10:20:47;;;;;;;22.53;4.10;;;;;;;20.13;58.70;101914.69;4972605;28;119693;-73
2022/10/03 10:23:35;;;;;;;17.60;3.40;;;;;;;20.23;58.52;101902.13;4965521;28;119997;-74
2022/10/03 10:26:32;;;;;;;17.60;3.50;;;;;;;20.28;57.56;101897.88;4971761;28;119893;-74
2022/10/03 10:28:58;;;;;;;18.30;3.40;;;;;;;20.36;57.35;101904.56;4948407;28;119781;-74
2022/10/03 10:31:26;;;;;;;16.57;3.00;;;;;;;20.42;57.79;101904.66;4971203;28;120331;-73
2022/10/03 10:34:04;;;;;;;12.43;3.28;;;;;;;20.48;57.22;101908.25;4955518;28;119796;-73
2022/10/03 10:36:49;;;;;;;12.80;3.17;;;;;;;20.37;57.54;101896.97;4967167;28;120013;-74
2022/10/03 10:39:26;;;;;;;13.40;2.85;;;;;;;20.37;57.75;101908.13;4964068;28;120463;-73
2022/10/03 10:42:26;;;;;;;11.77;2.40;;;;;;;20.35;56.55;101907.84;4967758;28;119461;-74
2022/10/03 10:45:11;;;;;;;9.55;1.85;;;;;;;20.21;56.12;101907.41;4967535;28;119820;-74
2022/10/03 10:47:48;;;;;;;12.70;2.53;;;;;;;20.10;56.44;101915.63;4969015;28;118824;-74
2022/10/03 10:50:33;;;;;;;20.00;3.65;;;;;;;19.98;57.29;101913.97;4963742;28;120019;-74
2022/10/03 10:53:08;;;;;;;10.20;2.30;;;;;;;19.96;57.73;101912.91;4969516;28;120876;-74
2022/10/03 10:55:58;;;;;;;12.20;2.55;;;;;;;19.99;58.48;101915.50;4970743;28;119604;-74
2022/10/03 10:58:30;;;;;;;12.88;2.67;;;;;;;20.06;58.80;101906.72;4968181;28;120592;-73
2022/10/03 11:00:58;;;;;;;12.63;2.22;;;;;;;20.16;59.04;101910.91;4960411;28;119970;-74
2022/10/03 11:03:27;;;;;;;14.55;3.08;;;;;;;20.28;58.91;101905.47;4967419;28;119538;-74
2022/10/03 11:06:11;;;;;;;14.75;3.10;;;;;;;20.35;58.59;101902.28;4966010;28;120120;-74
2022/10/03 11:08:53;;;;;;;14.85;2.70;;;;;;;20.38;58.31;101898.50;4968454;28;119811;-74
2022/10/03 11:11:53;;;;;;;13.63;3.15;;;;;;;20.33;58.36;101911.09;4971605;28;119955;-74
2022/10/03 11:14:27;;;;;;;19.17;3.38;;;;;;;20.37;59.05;101894.94;4964582;28;120988;-74
2022/10/03 11:17:10;;;;;;;;;;;;;;;20.39;58.52;101905.59;4975200;28;119658;-74
2022/10/03 11:19:45;;;;;;;15.82;3.05;;;;;;;20.30;58.59;101912.06;4962338;28;120053;-74
2022/10/03 11:22:26;;;;;;;21.92;3.70;;;;;;;20.20;58.98;101907.91;4966935;28;120304;-74
2022/10/03 11:25:13;;;;;;;16.92;3.03;;;;;;;20.16;59.15;101908.13;4967058;28;120896;-74
2022/10/03 11:28:01;;;;;;;17.25;3.28;;;;;;;20.20;59.51;101919.06;4972324;28;121175;-74
2022/10/03 11:30:56;;;;;;;18.55;3.17;;;;;;;20.20;59.14;101908.69;4962538;28;119544;-74
2022/10/03 11:33:46;;;;;;;16.30;3.08;;;;;;;20.16;59.20;101916.47;4972769;28;120076;-74
2022/10/03 11:36:43;;;;;;;13.93;3.15;;;;;;;20.09;59.18;101908.53;4971510;28;121361;-74
2022/10/03 11:39:49;;;;;;;17.65;3.00;;;;;;;20.01;58.25;101912.22;4947391;28;119574;-74
2022/10/03 11:42:39;;;;;;;17.38;3.30;;;;;;;19.90;58.52;101910.84;4952305;28;120148;-74
2022/10/03 11:45:48;;;;;;;10.35;2.83;;;;;;;19.87;58.12;101914.59;4945990;28;119964;-74
2022/10/03 11:48:41;;;;;;;15.00;3.05;;;;;;;19.87;58.55;101908.22;4973804;28;119744;-74
2022/10/03 11:51:15;;;;;;;20.40;3.28;;;;;;;19.95;59.22;101914.19;4951189;28;119843;-73
2022/10/03 11:53:53;;;;;;;22.05;3.58;;;;;;;20.14;59.95;101916.22;4980170;28;119628;-74
2022/10/03 11:56:40;;;;;;;19.33;3.25;;;;;;;20.34;59.22;101912.63;4962665;28;120029;-73
2022/10/03 11:59:37;;;;;;;19.50;3.40;;;;;;;20.47;58.41;101907.50;4951957;28;121861;-73
2022/10/03 12:02:12;;;;;;;13.85;2.80;;;;;;;20.48;57.11;101903.44;4957419;28;119757;-74
2022/10/03 12:04:50;;;;;;;8.63;2.08;;;;;;;20.43;57.01;101920.88;4960238;28;120490;-74
2022/10/03 12:11:00;;;;;;;21.23;4.03;;;;;;;20.24;57.31;101914.03;4977666;28;120169;-73
2022/10/03 12:13:41;;;;;;;16.23;2.80;;;;;;;20.12;57.71;101906.81;4966947;28;119955;-74
2022/10/03 12:16:41;;;;;;;22.77;3.25;;;;;;;20.09;58.28;101916.88;4947778;28;119941;-74
2022/10/03 12:19:29;;;;;;;12.98;2.70;;;;;;;20.09;58.72;101918.91;4967493;28;120094;-74
2022/10/03 12:22:17;;;;;;;11.57;2.63;;;;;;;20.10;58.28;101928.78;4971802;28;120174;-73
2022/10/03 12:24:45;;;;;;;13.52;2.72;;;;;;;20.07;58.69;101919.38;4967764;28;119916;-74
2022/10/03 12:27:55;;;;;;;18.00;3.05;;;;;;;20.16;58.07;101921.28;4967143;28;119686;-74
2022/10/03 12:30:21;;;;;;;14.32;3.15;;;;;;;20.22;57.47;101911.75;4973408;28;121220;-74
2022/10/03 12:33:16;;;;;;;10.63;2.13;;;;;;;20.26;57.33;101911.53;4966846;28;119810;-74
2022/10/03 12:35:49;;;;;;;15.55;3.03;;;;;;;20.27;57.45;101917.84;4964634;28;122091;-74
2022/10/03 12:38:43;;;;;;;13.88;3.10;;;;;;;20.30;57.39;101916.88;4965156;28;119916;-74
2022/10/03 12:41:45;;;;;;;16.15;3.58;;;;;;;20.28;57.44;101920.16;4967861;28;119811;-74
2022/10/03 12:44:49;;;;;;;13.45;2.47;;;;;;;20.22;57.23;101922.88;4924093;28;119757;-74